Time;durP1;ratioP1;P1;durP2;ratioP2;P2;SDS_P1;SDS_P2;PMS_P1;PMS_P2;Temp;Humidity;BMP_temperature;BMP_pressure;BME280_temperature;BME280_humidity;BME280_pressure;Samples;Min_cycle;Max_cycle;Signal;HPM_P1;HPM_P2
2022/09/17 00:00:58;;;;;;;5.78;0.90;;;15.50;98.50;;;;;;5040704;28;20249;-88
2022/09/17 00:03:24;;;;;;;4.40;0.75;;;15.50;98.90;;;;;;5040417;28;20053;-88
2022/09/17 00:05:59;;;;;;;4.20;0.90;;;15.40;98.90;;;;;;5072604;28;20232;-88
2022/09/17 00:08:25;;;;;;;4.75;0.80;;;15.40;98.80;;;;;;5041048;28;20306;-88
2022/09/17 00:10:50;;;;;;;3.38;0.98;;;15.40;99.00;;;;;;5040259;28;20049;-87
2022/09/17 00:13:16;;;;;;;4.57;0.80;;;15.30;99.30;;;;;;5040112;28;20032;-88
2022/09/17 00:15:44;;;;;;;2.03;0.45;;;15.30;99.50;;;;;;5073423;28;21082;-87
2022/09/17 00:18:11;;;;;;;5.22;0.77;;;15.20;99.70;;;;;;5044623;28;20033;-87
2022/09/17 00:20:41;;;;;;;2.97;0.85;;;15.30;99.80;;;;;;5045072;28;20022;-88
2022/09/17 00:23:08;;;;;;;2.13;0.93;;;15.20;99.80;;;;;;5044976;28;20401;-87
2022/09/17 00:25:37;;;;;;;3.17;0.80;;;15.20;99.90;;;;;;5045135;28;20029;-88
2022/09/17 00:28:02;;;;;;;4.90;1.25;;;15.20;99.90;;;;;;5040864;28;20369;-87
2022/09/17 00:30:28;;;;;;;1.98;0.70;;;15.20;99.90;;;;;;5045306;28;20013;-87
2022/09/17 00:32:56;;;;;;;3.75;0.85;;;15.20;99.90;;;;;;5045063;28;20033;-87
2022/09/17 00:35:23;;;;;;;3.67;0.70;;;15.20;99.90;;;;;;5044997;28;20013;-88
2022/09/17 00:37:49;;;;;;;2.38;0.60;;;15.10;99.90;;;;;;5044826;28;20211;-88
2022/09/17 00:40:15;;;;;;;2.72;0.73;;;15.10;99.90;;;;;;5044729;28;20330;-88
2022/09/17 00:42:40;;;;;;;6.15;0.90;;;15.10;99.90;;;;;;5044690;28;20237;-88
2022/09/17 00:45:08;;;;;;;3.10;0.70;;;15.00;99.90;;;;;;5044698;28;20021;-88
2022/09/17 00:47:38;;;;;;;4.53;0.90;;;15.00;99.90;;;;;;5076852;28;20025;-87
2022/09/17 00:50:07;;;;;;;5.13;0.98;;;15.00;99.90;;;;;;5044643;28;20210;-87
2022/09/17 00:52:41;;;;;;;3.90;0.70;;;14.90;99.90;;;;;;5044541;28;20017;-87
2022/09/17 00:55:23;;;;;;;5.25;1.00;;;14.90;99.90;;;;;;5044456;28;20017;-88
2022/09/17 00:57:52;;;;;;;2.75;1.15;;;14.80;99.90;;;;;;5044235;28;20079;-87
2022/09/17 01:00:19;;;;;;;3.20;0.75;;;14.70;99.90;;;;;;5044197;28;20041;-87
2022/09/17 01:02:44;;;;;;;4.55;0.75;;;14.80;99.90;;;;;;5044419;28;20021;-88
2022/09/17 01:05:11;;;;;;;2.72;0.80;;;14.80;99.90;;;;;;5044397;28;20059;-87
2022/09/17 01:07:55;;;;;;;4.25;0.75;;;14.80;99.90;;;;;;5032886;28;20057;-87
2022/09/17 01:10:45;;;;;;;4.73;0.77;;;14.70;99.90;;;;;;5044144;28;20028;-87
2022/09/17 01:13:44;;;;;;;2.78;0.70;;;14.60;99.90;;;;;;5039557;28;20049;-87
2022/09/17 01:16:26;;;;;;;4.18;0.75;;;14.60;99.90;;;;;;5044127;28;20013;-87
2022/09/17 01:19:03;;;;;;;7.03;0.88;;;14.60;99.90;;;;;;5075644;28;20056;-87
2022/09/17 01:21:47;;;;;;;10.70;1.10;;;14.50;99.90;;;;;;5044350;28;20049;-88
2022/09/17 01:24:27;;;;;;;1.65;0.65;;;14.60;99.90;;;;;;5043960;28;20252;-87
2022/09/17 01:27:33;;;;;;;6.57;1.00;;;14.50;99.90;;;;;;5043804;28;20020;-88
2022/09/17 01:30:09;;;;;;;4.53;1.20;;;14.50;99.90;;;;;;5025296;28;20021;-87
2022/09/17 01:32:51;;;;;;;5.32;0.90;;;14.50;99.90;;;;;;5042956;28;20016;-87
2022/09/17 01:35:39;;;;;;;3.40;0.95;;;14.40;99.90;;;;;;5037849;28;20059;-90
2022/09/17 01:38:13;;;;;;;6.43;1.00;;;14.40;99.90;;;;;;5043723;28;20287;-88
2022/09/17 01:41:01;;;;;;;7.00;1.42;;;14.30;99.90;;;;;;5075213;28;20021;-87
2022/09/17 01:43:33;;;;;;;4.97;0.98;;;14.30;99.90;;;;;;5043228;28;20048;-87
2022/09/17 01:46:17;;;;;;;5.15;1.10;;;14.30;99.90;;;;;;5043306;28;20025;-87
2022/09/17 01:48:47;;;;;;;6.80;1.67;;;14.20;99.90;;;;;;5043466;28;20013;-87
2022/09/17 01:51:23;;;;;;;2.97;0.95;;;14.20;99.90;;;;;;5043433;28;20075;-88
2022/09/17 01:53:59;;;;;;;4.80;1.02;;;14.20;99.90;;;;;;5035260;28;20198;-87
2022/09/17 01:56:30;;;;;;;5.25;1.10;;;14.20;99.90;;;;;;5035404;28;20311;-87
2022/09/17 01:59:08;;;;;;;2.05;0.95;;;14.10;99.90;;;;;;5036724;28;20100;-87
2022/09/17 02:01:37;;;;;;;5.20;1.17;;;14.10;99.90;;;;;;5037443;28;20091;-87
2022/09/17 02:04:27;;;;;;;3.03;1.02;;;14.10;99.90;;;;;;5043148;28;20040;-87
2022/09/17 02:06:59;;;;;;;3.15;1.10;;;14.10;99.90;;;;;;5043155;28;20047;-87
2022/09/17 02:09:41;;;;;;;2.90;1.23;;;14.10;99.90;;;;;;5027375;28;20064;-87
2022/09/17 02:12:11;;;;;;;4.75;1.13;;;14.00;99.90;;;;;;5042525;28;20028;-87
2022/09/17 02:14:43;;;;;;;4.18;1.08;;;14.00;99.90;;;;;;5043322;28;20051;-87
2022/09/17 02:17:48;;;;;;;6.82;1.67;;;14.00;99.90;;;;;;5037711;28;20013;-87
2022/09/17 02:20:15;;;;;;;4.78;1.15;;;13.90;99.90;;;;;;5000138;28;20213;-87
2022/09/17 02:22:56;;;;;;;4.15;1.27;;;13.90;99.90;;;;;;5041080;28;20214;-87
2022/09/17 02:25:35;;;;;;;3.35;1.15;;;13.90;99.90;;;;;;5036869;28;20021;-87
2022/09/17 02:28:01;;;;;;;8.38;1.40;;;13.90;99.90;;;;;;5037398;28;20085;-87
2022/09/17 02:30:27;;;;;;;7.05;1.35;;;13.90;99.90;;;;;;5075089;28;20029;-88
2022/09/17 02:32:54;;;;;;;7.10;1.65;;;13.90;99.90;;;;;;5042637;28;20021;-87
2022/09/17 02:35:20;;;;;;;6.30;1.63;;;13.90;99.90;;;;;;5042881;28;20017;-87
2022/09/17 02:37:46;;;;;;;4.25;1.30;;;13.90;99.90;;;;;;5042678;28;20059;-87
2022/09/17 02:40:14;;;;;;;8.18;1.45;;;13.80;99.90;;;;;;5073246;28;20010;-87
2022/09/17 02:42:43;;;;;;;3.22;1.23;;;13.80;99.90;;;;;;5040592;28;20035;-87
2022/09/17 02:45:37;;;;;;;7.95;1.67;;;13.70;99.90;;;;;;5040770;28;20013;-87
2022/09/17 02:48:27;;;;;;;5.15;1.60;;;13.70;99.90;;;;;;5042136;28;20261;-87
2022/09/17 02:51:22;;;;;;;4.50;1.50;;;13.60;99.90;;;;;;5036349;28;20048;-87
2022/09/17 02:54:11;;;;;;;2.67;1.27;;;13.60;99.90;;;;;;5041593;28;20021;-87
2022/09/17 02:57:01;;;;;;;6.88;1.42;;;13.60;99.90;;;;;;5042166;28;20025;-87
2022/09/17 02:59:41;;;;;;;5.43;1.42;;;13.50;99.90;;;;;;5038059;28;20201;-87
2022/09/17 03:02:44;;;;;;;7.75;1.73;;;13.50;99.90;;;;;;5038358;28;20037;-87
2022/09/17 03:05:11;;;;;;;2.63;1.20;;;13.50;99.90;;;;;;5038323;28;20098;-87
2022/09/17 03:07:37;;;;;;;4.00;1.35;;;13.40;99.90;;;;;;5026715;28;20020;-87
2022/09/17 03:10:04;;;;;;;3.47;1.35;;;13.40;99.90;;;;;;5037203;28;20206;-87
2022/09/17 03:12:30;;;;;;;3.35;1.60;;;13.40;99.90;;;;;;5039049;28;20072;-87
2022/09/17 03:14:56;;;;;;;7.50;1.60;;;13.40;99.90;;;;;;5040911;28;20260;-87
2022/09/17 03:17:21;;;;;;;4.60;1.30;;;13.30;99.90;;;;;;5033824;28;20025;-87
2022/09/17 03:19:47;;;;;;;7.72;1.42;;;13.30;99.90;;;;;;5039643;28;20025;-87
2022/09/17 03:22:13;;;;;;;4.43;1.42;;;13.30;99.90;;;;;;5040131;28;20037;-87
2022/09/17 03:24:38;;;;;;;5.03;1.85;;;13.30;99.90;;;;;;5032923;28;20021;-87
2022/09/17 03:27:04;;;;;;;5.53;1.55;;;13.30;99.90;;;;;;5042394;28;20018;-87
2022/09/17 03:29:30;;;;;;;4.03;1.30;;;13.20;99.90;;;;;;5027870;28;20022;-87
2022/09/17 03:31:55;;;;;;;6.45;1.40;;;13.20;99.90;;;;;;5036937;28;20014;-87
2022/09/17 03:34:22;;;;;;;3.60;1.25;;;13.20;99.90;;;;;;5041723;28;20021;-87
2022/09/17 03:36:47;;;;;;;5.63;1.45;;;13.20;99.90;;;;;;5035680;28;20033;-87
2022/09/17 03:39:13;;;;;;;4.97;1.25;;;13.10;99.90;;;;;;5072672;28;20329;-87
2022/09/17 03:41:39;;;;;;;4.13;1.40;;;13.10;99.90;;;;;;5040923;28;20250;-87
2022/09/17 03:44:05;;;;;;;4.70;1.60;;;13.10;99.90;;;;;;5025373;28;20036;-87
2022/09/17 03:46:31;;;;;;;3.53;1.30;;;13.10;99.90;;;;;;5039180;28;20009;-87
2022/09/17 03:48:56;;;;;;;3.65;1.40;;;13.10;99.90;;;;;;5041380;28;20028;-87
2022/09/17 03:51:22;;;;;;;4.25;1.30;;;13.10;99.90;;;;;;5041100;28;20083;-87
2022/09/17 03:53:47;;;;;;;2.38;1.10;;;13.10;99.90;;;;;;5073731;28;20017;-87
2022/09/17 03:56:13;;;;;;;6.18;1.48;;;13.10;99.90;;;;;;5036821;28;20041;-87
2022/09/17 03:58:39;;;;;;;2.67;1.17;;;13.00;99.90;;;;;;5034864;28;20069;-87
2022/09/17 04:01:05;;;;;;;4.72;1.38;;;13.00;99.90;;;;;;5040849;28;20060;-87
2022/09/17 04:03:31;;;;;;;5.35;1.52;;;13.00;99.90;;;;;;5041433;28;20025;-87
2022/09/17 04:05:57;;;;;;;4.93;1.30;;;13.00;99.90;;;;;;5041080;28;20025;-87
2022/09/17 04:08:22;;;;;;;4.70;1.10;;;13.00;99.90;;;;;;5041359;28;20221;-87
2022/09/17 04:10:50;;;;;;;8.13;1.40;;;12.90;99.90;;;;;;5041135;28;20033;-87
2022/09/17 04:13:17;;;;;;;3.67;1.35;;;12.90;99.90;;;;;;5041083;28;20013;-87
2022/09/17 04:15:44;;;;;;;2.70;1.42;;;12.90;99.90;;;;;;5072902;28;20026;-88
2022/09/17 04:18:10;;;;;;;6.28;1.45;;;12.90;99.90;;;;;;5041165;28;20033;-87
2022/09/17 04:20:36;;;;;;;4.30;1.30;;;12.90;99.90;;;;;;5033363;28;20014;-87
2022/09/17 04:23:02;;;;;;;3.97;1.20;;;12.90;99.90;;;;;;5041130;28;20036;-87
2022/09/17 04:25:27;;;;;;;8.38;1.70;;;12.80;99.90;;;;;;5041211;28;20018;-87
2022/09/17 04:27:53;;;;;;;4.18;1.30;;;12.80;99.90;;;;;;5041047;28;20013;-87
2022/09/17 04:30:19;;;;;;;4.18;1.98;;;12.70;99.90;;;;;;5040300;28;20241;-87
2022/09/17 04:32:45;;;;;;;3.88;1.58;;;12.70;99.90;;;;;;5073171;28;20022;-87
2022/09/17 04:35:12;;;;;;;7.20;1.50;;;12.70;99.90;;;;;;5032826;28;20206;-87
2022/09/17 04:37:38;;;;;;;5.25;1.50;;;12.70;99.90;;;;;;5040179;28;20026;-87
2022/09/17 04:40:04;;;;;;;5.28;1.67;;;12.60;99.90;;;;;;5041274;28;20028;-87
2022/09/17 04:42:33;;;;;;;3.63;1.00;;;12.60;99.90;;;;;;5025249;28;20017;-87
2022/09/17 04:44:59;;;;;;;3.15;1.08;;;12.60;99.90;;;;;;5038193;28;20030;-87
2022/09/17 04:47:25;;;;;;;5.55;1.63;;;12.50;99.90;;;;;;5040514;28;20263;-87
2022/09/17 04:49:50;;;;;;;3.20;1.23;;;12.50;99.90;;;;;;5040549;28;20029;-87
2022/09/17 04:52:17;;;;;;;3.55;1.30;;;12.50;99.90;;;;;;5033640;28;20021;-87
2022/09/17 04:54:42;;;;;;;2.75;1.30;;;12.40;99.90;;;;;;5029853;28;20022;-87
2022/09/17 04:57:08;;;;;;;3.83;1.20;;;12.50;99.90;;;;;;5038607;28;20176;-87
2022/09/17 04:59:34;;;;;;;4.60;1.27;;;12.40;99.90;;;;;;5040789;28;20021;-87
2022/09/17 05:01:59;;;;;;;4.43;1.20;;;12.40;99.90;;;;;;5040127;28;20032;-87
2022/09/17 05:04:25;;;;;;;5.60;1.17;;;12.50;99.90;;;;;;5074468;28;20180;-87
2022/09/17 05:06:50;;;;;;;4.45;1.25;;;12.40;99.90;;;;;;5044398;28;20213;-87
2022/09/17 05:09:16;;;;;;;6.55;1.67;;;12.40;99.90;;;;;;5044201;28;20028;-87
2022/09/17 05:11:42;;;;;;;6.03;1.90;;;12.40;99.90;;;;;;5043545;28;20088;-87
2022/09/17 05:14:07;;;;;;;6.03;1.30;;;12.40;99.90;;;;;;5043293;28;20040;-87
2022/09/17 05:16:33;;;;;;;3.05;1.20;;;12.40;99.90;;;;;;5044278;28;20043;-87
2022/09/17 05:18:59;;;;;;;5.18;1.38;;;12.40;99.90;;;;;;5043847;28;20050;-87
2022/09/17 05:21:25;;;;;;;8.50;1.40;;;12.30;99.90;;;;;;5043995;28;20064;-87
2022/09/17 05:23:51;;;;;;;3.95;1.17;;;12.30;99.90;;;;;;5044353;28;20302;-87
2022/09/17 05:26:16;;;;;;;5.25;1.20;;;12.30;99.90;;;;;;5043939;28;20078;-87
2022/09/17 05:28:42;;;;;;;4.10;1.40;;;12.30;99.90;;;;;;5030706;28;20029;-87
2022/09/17 05:31:08;;;;;;;4.15;1.38;;;12.20;99.90;;;;;;5044038;28;20044;-87
2022/09/17 05:33:34;;;;;;;4.28;1.40;;;12.30;99.90;;;;;;5032633;28;20041;-87
2022/09/17 05:36:00;;;;;;;2.63;1.30;;;12.20;99.90;;;;;;5055161;28;20026;-87
2022/09/17 05:38:25;;;;;;;5.05;1.58;;;12.30;99.90;;;;;;5035432;28;20349;-87
2022/09/17 05:40:51;;;;;;;3.47;1.20;;;12.30;99.90;;;;;;5041443;28;20397;-87
2022/09/17 05:43:17;;;;;;;4.70;1.35;;;12.20;99.90;;;;;;5043042;28;20025;-87
2022/09/17 05:45:43;;;;;;;5.05;2.13;;;12.20;99.90;;;;;;5028278;28;20041;-87
2022/09/17 05:48:12;;;;;;;4.00;1.33;;;12.20;99.90;;;;;;5041111;28;20305;-87
2022/09/17 05:50:38;;;;;;;5.50;1.52;;;12.20;99.90;;;;;;5028588;28;20339;-87
2022/09/17 05:53:11;;;;;;;4.13;1.30;;;12.20;99.90;;;;;;5033415;28;20306;-83
2022/09/17 05:55:37;;;;;;;4.72;1.30;;;12.20;99.90;;;;;;5035404;28;20083;-79
2022/09/17 05:58:14;;;;;;;6.07;1.30;;;12.20;99.90;;;;;;5031850;28;20159;-83
2022/09/17 06:00:41;;;;;;;3.80;1.40;;;12.20;99.90;;;;;;5031288;28;20044;-82
2022/09/17 06:03:13;;;;;;;3.20;1.35;;;12.20;99.90;;;;;;5031394;28;20025;-82
2022/09/17 06:05:39;;;;;;;2.45;1.40;;;12.20;99.90;;;;;;5031637;28;20478;-82
2022/09/17 06:08:05;;;;;;;5.28;1.48;;;12.20;99.90;;;;;;5031472;28;20072;-82
2022/09/17 06:10:31;;;;;;;4.88;1.45;;;12.20;99.90;;;;;;5031657;28;20085;-82
2022/09/17 06:12:58;;;;;;;5.65;1.60;;;12.20;99.90;;;;;;5031255;28;20076;-82
2022/09/17 06:15:25;;;;;;;3.92;1.58;;;12.20;99.90;;;;;;5035770;28;20021;-82
2022/09/17 06:17:51;;;;;;;7.43;1.63;;;12.20;99.90;;;;;;5037022;28;20111;-82
2022/09/17 06:20:17;;;;;;;4.13;1.70;;;12.30;99.90;;;;;;5042370;28;20013;-82
2022/09/17 06:22:43;;;;;;;4.13;1.58;;;12.30;99.90;;;;;;5041726;28;20104;-82
2022/09/17 06:25:09;;;;;;;3.72;1.30;;;12.30;99.90;;;;;;5040532;28;20028;-82
2022/09/17 06:27:35;;;;;;;4.72;1.50;;;12.40;99.90;;;;;;5042641;28;20033;-82
2022/09/17 06:30:01;;;;;;;2.38;1.27;;;12.40;99.90;;;;;;5037488;28;20068;-80
2022/09/17 06:32:27;;;;;;;3.03;1.33;;;12.40;99.90;;;;;;5034406;28;20033;-81
2022/09/17 06:34:54;;;;;;;4.57;1.20;;;12.50;99.90;;;;;;5039226;28;20025;-83
2022/09/17 06:37:26;;;;;;;6.25;1.40;;;12.50;99.90;;;;;;5041923;28;20021;-80
2022/09/17 06:39:52;;;;;;;2.47;1.35;;;12.60;99.90;;;;;;5040802;28;20044;-83
2022/09/17 06:42:18;;;;;;;6.63;1.27;;;12.70;99.90;;;;;;5041049;28;20084;-83
2022/09/17 06:44:43;;;;;;;4.05;1.30;;;12.70;99.90;;;;;;5040622;28;20025;-82
2022/09/17 06:47:09;;;;;;;7.03;1.50;;;12.80;99.90;;;;;;5041615;28;20022;-82
2022/09/17 06:49:35;;;;;;;2.90;1.20;;;12.90;99.90;;;;;;5041655;28;20033;-82
2022/09/17 06:52:00;;;;;;;6.80;1.60;;;13.00;99.90;;;;;;5041647;28;20025;-84
2022/09/17 06:54:26;;;;;;;3.30;1.20;;;13.00;99.90;;;;;;5041312;28;20077;-84
2022/09/17 06:56:51;;;;;;;5.32;1.50;;;13.10;99.90;;;;;;5040895;28;20017;-83
2022/09/17 06:59:17;;;;;;;3.47;1.35;;;13.20;99.90;;;;;;5033042;28;20515;-84
2022/09/17 07:01:43;;;;;;;3.10;1.15;;;13.30;99.90;;;;;;5038199;28;20104;-82
2022/09/17 07:04:09;;;;;;;4.28;1.40;;;13.40;99.90;;;;;;5040584;28;20241;-82
2022/09/17 07:06:34;;;;;;;3.60;1.10;;;13.50;99.90;;;;;;5040976;28;20036;-82
2022/09/17 07:09:00;;;;;;;3.97;1.17;;;13.60;99.90;;;;;;5041334;28;20297;-82
2022/09/17 07:11:25;;;;;;;2.35;1.05;;;13.60;99.90;;;;;;5040879;28;20063;-82
2022/09/17 07:13:51;;;;;;;5.38;1.30;;;13.70;99.90;;;;;;5041100;28;20093;-83
2022/09/17 07:16:17;;;;;;;2.83;1.20;;;13.80;99.90;;;;;;5041407;28;20025;-83
2022/09/17 07:18:42;;;;;;;4.22;1.30;;;13.90;99.90;;;;;;5040163;28;20033;-83
2022/09/17 07:21:09;;;;;;;3.45;1.25;;;14.00;99.90;;;;;;5041024;28;20018;-83
2022/09/17 07:23:36;;;;;;;3.80;1.30;;;14.00;99.90;;;;;;5041013;28;20038;-84
2022/09/17 07:26:11;;;;;;;3.78;1.27;;;14.10;99.90;;;;;;5040788;28;20032;-83
2022/09/17 07:28:38;;;;;;;3.85;1.20;;;14.20;99.90;;;;;;5040832;28;20029;-83
2022/09/17 07:31:04;;;;;;;3.10;1.00;;;14.20;99.90;;;;;;5032374;28;20033;-83
2022/09/17 07:33:30;;;;;;;6.00;1.52;;;14.30;99.90;;;;;;5041614;28;20206;-83
2022/09/17 07:36:01;;;;;;;2.85;1.00;;;14.40;99.90;;;;;;5036244;28;20028;-84
2022/09/17 07:38:28;;;;;;;5.15;1.48;;;14.50;99.90;;;;;;5041129;28;20044;-84
2022/09/17 07:40:57;;;;;;;5.45;1.10;;;14.60;99.90;;;;;;5040255;28;20290;-84
2022/09/17 07:43:26;;;;;;;3.47;1.10;;;14.70;99.90;;;;;;5035284;28;20221;-84
2022/09/17 07:45:53;;;;;;;2.10;1.05;;;14.70;99.90;;;;;;5039809;28;20068;-84
2022/09/17 07:48:19;;;;;;;5.28;1.35;;;14.90;99.90;;;;;;5035172;28;20044;-84
2022/09/17 07:50:46;;;;;;;3.17;1.17;;;15.00;99.90;;;;;;5064075;28;20442;-84
2022/09/17 07:53:12;;;;;;;5.03;1.08;;;15.00;99.90;;;;;;5029560;28;20022;-84
2022/09/17 07:55:37;;;;;;;2.08;1.05;;;15.00;99.90;;;;;;5032750;28;20452;-84
2022/09/17 07:58:03;;;;;;;3.75;1.10;;;15.20;99.90;;;;;;5034646;28;20090;-84
2022/09/17 08:00:29;;;;;;;3.92;1.10;;;15.30;99.90;;;;;;5036492;28;20045;-84
2022/09/17 08:02:55;;;;;;;11.15;1.33;;;15.40;99.90;;;;;;5040619;28;20025;-83
2022/09/17 08:05:23;;;;;;;6.53;1.17;;;15.30;99.90;;;;;;5032812;28;20538;-82
2022/09/17 08:07:50;;;;;;;2.10;1.10;;;15.40;99.90;;;;;;5031702;28;20021;-82
2022/09/17 08:10:20;;;;;;;7.85;1.30;;;15.50;99.90;;;;;;5031922;28;20033;-82
2022/09/17 08:12:49;;;;;;;5.28;1.27;;;15.60;99.90;;;;;;5032951;28;20022;-83
2022/09/17 08:15:18;;;;;;;4.18;1.10;;;15.70;99.90;;;;;;5033888;28;20025;-82
2022/09/17 08:17:44;;;;;;;4.10;1.10;;;15.80;99.90;;;;;;5030654;28;20048;-82
2022/09/17 08:20:11;;;;;;;4.65;1.17;;;15.80;99.90;;;;;;5033925;28;20045;-82
2022/09/17 08:22:36;;;;;;;2.13;0.90;;;15.90;99.90;;;;;;5032561;28;20096;-82
2022/09/17 08:25:03;;;;;;;4.70;1.20;;;16.00;99.90;;;;;;5032945;28;20038;-81
2022/09/17 08:27:30;;;;;;;5.35;1.55;;;16.00;99.90;;;;;;5032078;28;20063;-82
2022/09/17 08:29:55;;;;;;;4.00;0.98;;;16.00;99.90;;;;;;5031002;28;20113;-82
2022/09/17 08:32:21;;;;;;;5.82;1.10;;;16.10;99.90;;;;;;5031696;28;20056;-81
2022/09/17 08:34:47;;;;;;;2.58;0.90;;;16.10;99.90;;;;;;5036326;28;20021;-82
2022/09/17 08:37:12;;;;;;;9.27;1.30;;;16.20;99.90;;;;;;5034459;28;20025;-81
2022/09/17 08:39:38;;;;;;;3.97;0.90;;;16.40;99.90;;;;;;5039536;28;20103;-82
2022/09/17 08:42:11;;;;;;;3.17;0.80;;;16.40;99.90;;;;;;5033158;28;20096;-82
2022/09/17 08:44:46;;;;;;;2.50;0.90;;;16.50;99.90;;;;;;5033527;28;20537;-82
2022/09/17 08:47:35;;;;;;;2.83;1.08;;;16.50;99.90;;;;;;5031832;28;20029;-81
2022/09/17 08:50:04;;;;;;;4.60;1.10;;;16.60;99.90;;;;;;5033516;28;20026;-82
2022/09/17 08:53:03;;;;;;;4.40;1.17;;;16.70;99.50;;;;;;5033030;28;20026;-82
2022/09/17 08:56:10;;;;;;;3.80;0.90;;;16.70;99.20;;;;;;5034028;28;20370;-86
2022/09/17 08:59:15;;;;;;;2.17;0.80;;;16.90;99.20;;;;;;5032500;28;20112;-81
2022/09/17 09:02:02;;;;;;;5.10;0.90;;;17.00;98.60;;;;;;5027530;28;20068;-81
2022/09/17 09:04:49;;;;;;;5.65;0.80;;;17.10;98.60;;;;;;5029660;28;20025;-85
2022/09/17 09:07:24;;;;;;;2.63;0.90;;;17.10;98.30;;;;;;5033039;28;20482;-84
2022/09/17 09:10:03;;;;;;;1.45;0.70;;;17.20;97.80;;;;;;5032836;28;20104;-87
2022/09/17 09:12:32;;;;;;;2.45;0.73;;;17.30;97.60;;;;;;5059983;28;20040;-88
2022/09/17 09:15:06;;;;;;;2.50;0.80;;;17.40;97.20;;;;;;5032781;28;20025;-85
2022/09/17 09:17:45;;;;;;;3.53;1.00;;;17.50;96.90;;;;;;5032945;28;20466;-86
2022/09/17 09:21:04;;;;;;;6.88;0.70;;;17.70;96.60;;;;;;5025175;28;20064;-85
2022/09/17 09:23:49;;;;;;;4.85;0.90;;;17.80;96.40;;;;;;5021598;28;20496;-84
2022/09/17 09:26:16;;;;;;;;;;;17.90;96.50;;;;;;5032854;28;20045;-84
2022/09/17 09:29:04;;;;;;;3.10;0.60;;;17.90;95.90;;;;;;5064594;28;19905;-83
2022/09/17 09:31:30;;;;;;;1.73;0.50;;;18.00;95.90;;;;;;5032695;28;20560;-83
2022/09/17 09:33:57;;;;;;;3.22;0.60;;;18.10;95.70;;;;;;5032867;28;20029;-84
2022/09/17 09:36:27;;;;;;;1.40;0.60;;;18.20;95.70;;;;;;5064489;28;20397;-83
2022/09/17 09:38:55;;;;;;;3.47;0.70;;;18.30;95.50;;;;;;5032396;28;20560;-84
2022/09/17 09:41:44;;;;;;;2.72;0.70;;;18.40;94.90;;;;;;5064271;28;20040;-84
2022/09/17 09:44:12;;;;;;;8.95;0.90;;;18.30;94.70;;;;;;5031943;28;20052;-85
2022/09/17 09:46:56;;;;;;;4.55;0.80;;;18.30;95.20;;;;;;5032244;28;20034;-85
2022/09/17 09:50:00;;;;;;;2.50;0.70;;;18.40;94.60;;;;;;5025543;28;20025;-85
2022/09/17 09:52:44;;;;;;;2.72;0.70;;;18.40;94.90;;;;;;4990558;28;20562;-85
2022/09/17 09:55:22;;;;;;;2.60;0.65;;;18.50;94.90;;;;;;5029028;28;20063;-85
2022/09/17 09:57:57;;;;;;;3.67;0.70;;;18.50;94.50;;;;;;5040578;28;20113;-89
2022/09/17 10:00:26;;;;;;;2.65;0.52;;;18.60;94.20;;;;;;5025687;28;20502;-86
2022/09/17 10:03:20;;;;;;;2.28;0.77;;;18.70;93.80;;;;;;5032000;28;20064;-82
2022/09/17 10:05:55;;;;;;;4.88;0.82;;;18.90;93.90;;;;;;5040059;28;20041;-81
2022/09/17 10:08:20;;;;;;;;;;;18.90;93.50;;;;;;5025608;28;20454;-84
2022/09/17 10:11:12;;;;;;;2.67;0.60;;;19.10;94.00;;;;;;5024051;28;19989;-80
2022/09/17 10:13:39;;;;;;;2.58;0.40;;;19.20;93.30;;;;;;5026558;28;20391;-84
2022/09/17 10:16:23;;;;;;;2.28;0.57;;;19.20;93.60;;;;;;5031805;28;20091;-84
2022/09/17 10:19:09;;;;;;;;;;;19.30;92.60;;;;;;5031800;28;20110;-84
2022/09/17 10:21:38;;;;;;;4.20;0.70;;;19.30;93.10;;;;;;5026090;28;19905;-83
2022/09/17 10:24:23;;;;;;;3.35;0.60;;;19.40;92.50;;;;;;5031211;28;20551;-84
2022/09/17 10:26:49;;;;;;;1.55;0.38;;;19.50;92.30;;;;;;5031397;28;20017;-84
2022/09/17 10:29:18;;;;;;;3.83;0.70;;;19.60;92.00;;;;;;5031569;28;20462;-84
2022/09/17 10:31:47;;;;;;;1.70;0.52;;;19.70;91.80;;;;;;5031476;28;20029;-84
2022/09/17 10:34:32;;;;;;;3.58;0.80;;;19.80;91.40;;;;;;5031539;28;20017;-84
2022/09/17 10:36:58;;;;;;;2.38;0.45;;;19.80;90.80;;;;;;5030349;28;20550;-84
2022/09/17 10:39:35;;;;;;;3.25;0.50;;;19.80;90.70;;;;;;5030772;28;20121;-83
2022/09/17 10:42:19;;;;;;;4.07;0.57;;;19.80;90.40;;;;;;5024492;28;20497;-84
2022/09/17 10:44:58;;;;;;;2.55;0.57;;;19.90;89.70;;;;;;5031962;28;20092;-84
2022/09/17 10:47:40;;;;;;;4.35;0.65;;;20.00;89.20;;;;;;5033226;28;20029;-83
2022/09/17 10:50:18;;;;;;;2.08;0.52;;;20.00;88.20;;;;;;5033099;28;20017;-84
2022/09/17 10:52:50;;;;;;;1.08;0.40;;;20.00;88.80;;;;;;5039962;28;20089;-84
2022/09/17 10:55:39;;;;;;;4.03;1.40;;;20.10;89.00;;;;;;5041161;28;20321;-84
2022/09/17 10:58:06;;;;;;;3.42;0.52;;;20.20;87.10;;;;;;5041654;28;20229;-84
2022/09/17 11:00:57;;;;;;;2.75;0.50;;;20.30;87.20;;;;;;5041460;28;20098;-84
2022/09/17 11:04:07;;;;;;;3.03;0.52;;;20.10;86.80;;;;;;5041847;28;20010;-84
2022/09/17 11:07:08;;;;;;;1.67;0.40;;;20.20;86.30;;;;;;5041819;28;20244;-84
2022/09/17 11:09:52;;;;;;;2.42;0.70;;;20.40;87.00;;;;;;5040788;28;20048;-84
2022/09/17 11:12:32;;;;;;;1.33;0.47;;;20.50;86.20;;;;;;5041425;28;20021;-84
2022/09/17 11:15:12;;;;;;;1.77;0.50;;;20.70;84.50;;;;;;5041477;28;20025;-84
2022/09/17 11:17:38;;;;;;;5.78;0.65;;;20.70;84.00;;;;;;5041464;28;20025;-84
2022/09/17 11:20:10;;;;;;;2.08;0.45;;;20.80;84.20;;;;;;5041144;28;20041;-84
2022/09/17 11:22:55;;;;;;;2.90;0.60;;;20.90;82.10;;;;;;5041693;28;20056;-84
2022/09/17 11:25:32;;;;;;;1.77;0.40;;;20.90;83.40;;;;;;5039051;28;20517;-84
2022/09/17 11:28:28;;;;;;;1.70;0.65;;;21.00;83.60;;;;;;5038137;28;20023;-84
2022/09/17 11:31:03;;;;;;;1.98;0.50;;;21.10;83.50;;;;;;5037225;28;20333;-83
2022/09/17 11:33:44;;;;;;;2.30;0.73;;;21.20;83.00;;;;;;5034389;28;20116;-84
2022/09/17 11:36:14;;;;;;;2.85;0.80;;;21.40;83.60;;;;;;5035371;28;20297;-84
2022/09/17 11:39:02;;;;;;;4.65;0.80;;;21.40;80.70;;;;;;5041702;28;20025;-84
2022/09/17 11:41:36;;;;;;;3.47;0.40;;;21.30;81.20;;;;;;5037032;28;20091;-84
2022/09/17 11:44:22;;;;;;;3.35;0.70;;;21.20;80.60;;;;;;5038963;28;20097;-84
2022/09/17 11:46:56;;;;;;;3.60;0.43;;;21.30;81.10;;;;;;5038164;28;20040;-85
2022/09/17 11:49:45;;;;;;;4.32;0.52;;;21.40;79.90;;;;;;5040894;28;20028;-84
2022/09/17 11:52:23;;;;;;;3.10;0.60;;;21.50;80.80;;;;;;5048198;28;20037;-85
2022/09/17 11:55:06;;;;;;;1.67;0.35;;;21.60;81.20;;;;;;5040745;28;20322;-85
2022/09/17 11:57:40;;;;;;;5.80;0.95;;;21.70;80.30;;;;;;5040655;28;20249;-85
2022/09/17 12:00:17;;;;;;;3.03;0.75;;;21.80;80.50;;;;;;5041181;28;20057;-85
2022/09/17 12:03:05;;;;;;;3.78;0.90;;;21.90;80.70;;;;;;5037300;28;20109;-85
2022/09/17 12:05:42;;;;;;;3.47;0.70;;;21.90;79.30;;;;;;5039455;28;20026;-84
2022/09/17 12:08:33;;;;;;;2.90;0.50;;;21.80;78.80;;;;;;5040681;28;20022;-85
2022/09/17 12:11:07;;;;;;;4.43;0.93;;;21.90;78.60;;;;;;5033555;28;20029;-84
2022/09/17 12:13:47;;;;;;;4.95;0.63;;;22.10;78.50;;;;;;5075020;28;20029;-84
2022/09/17 12:16:22;;;;;;;5.22;0.63;;;22.10;78.20;;;;;;5042324;28;20025;-83
2022/09/17 12:19:00;;;;;;;3.97;0.50;;;22.00;77.90;;;;;;5042433;28;20369;-84
2022/09/17 12:21:46;;;;;;;3.72;1.05;;;21.90;78.00;;;;;;5043582;28;20210;-84
2022/09/17 12:24:23;;;;;;;1.98;0.68;;;22.00;78.80;;;;;;5040108;28;20037;-90
2022/09/17 12:27:09;;;;;;;3.97;0.70;;;22.00;79.00;;;;;;5029768;28;20029;-88
2022/09/17 12:30:08;;;;;;;3.08;0.80;;;21.90;77.70;;;;;;5076879;28;20049;-86
2022/09/17 12:32:49;;;;;;;8.13;0.90;;;22.00;77.90;;;;;;5033044;28;20041;-88
2022/09/17 12:35:43;;;;;;;2.33;0.50;;;22.20;78.60;;;;;;5075488;28;20100;-90
2022/09/17 12:38:21;;;;;;;4.28;1.00;;;22.40;78.40;;;;;;5040662;28;20233;-93
2022/09/17 12:41:38;;;;;;;6.13;1.00;;;22.70;76.30;;;;;;5071199;28;20025;-90
2022/09/17 12:44:37;;;;;;;2.17;0.63;;;22.80;76.60;;;;;;5019313;28;20298;-87
2022/09/17 12:47:39;;;;;;;5.78;0.65;;;22.70;76.30;;;;;;5043789;28;20033;-87
2022/09/17 12:50:18;;;;;;;6.10;0.60;;;22.70;76.60;;;;;;5043938;28;20240;-86
2022/09/17 12:52:52;;;;;;;2.70;0.75;;;22.70;78.70;;;;;;5043938;28;20274;-87
2022/09/17 12:55:33;;;;;;;2.75;0.65;;;22.70;77.10;;;;;;5033760;28;20100;-84
2022/09/17 12:58:33;;;;;;;3.95;0.68;;;22.80;76.30;;;;;;5032929;28;20109;-84
2022/09/17 13:01:06;;;;;;;4.47;0.73;;;22.90;76.40;;;;;;5033232;28;20045;-87
2022/09/17 13:03:38;;;;;;;2.67;0.57;;;23.00;75.50;;;;;;5027025;28;20053;-87
2022/09/17 13:06:25;;;;;;;2.53;0.70;;;22.80;75.30;;;;;;5033247;28;20033;-86
2022/09/17 13:09:06;;;;;;;2.50;0.60;;;22.90;75.50;;;;;;5032689;28;20030;-85
2022/09/17 13:11:37;;;;;;;5.30;0.50;;;23.10;74.40;;;;;;5064117;28;20108;-85
2022/09/17 13:14:27;;;;;;;3.67;0.65;;;23.30;73.90;;;;;;5032391;28;20076;-85
2022/09/17 13:17:50;;;;;;;6.32;0.43;;;23.50;73.00;;;;;;5028077;28;20022;-86
2022/09/17 13:20:54;;;;;;;4.72;0.50;;;23.50;71.90;;;;;;4989654;28;20030;-86